Time;durP1;ratioP1;P1;durP2;ratioP2;P2;SDS_P1;SDS_P2;PMS_P1;PMS_P2;Temp;Humidity;BMP_temperature;BMP_pressure;BME280_temperature;BME280_humidity;BME280_pressure;Samples;Min_cycle;Max_cycle;Signal;HPM_P1;HPM_P2
2023/08/13 00:01:07;;;;;;;12.80;3.53;;;16.10;99.90;;;;;;5033812;28;20433;-80
2023/08/13 00:03:33;;;;;;;12.17;3.40;;;16.40;99.90;;;;;;5036853;28;20491;-80
2023/08/13 00:05:59;;;;;;;13.70;3.70;;;16.30;99.90;;;;;;5036802;28;20784;-79
2023/08/13 00:08:24;;;;;;;11.82;3.75;;;16.50;99.90;;;;;;5036860;28;20515;-80
2023/08/13 00:10:50;;;;;;;10.88;3.30;;;16.40;99.90;;;;;;5052396;28;20419;-78
2023/08/13 00:13:16;;;;;;;12.68;3.72;;;16.10;99.90;;;;;;5052726;28;20423;-80
2023/08/13 00:15:42;;;;;;;17.08;3.90;;;16.20;99.90;;;;;;5036319;28;20446;-79
2023/08/13 00:18:10;;;;;;;11.25;3.60;;;16.40;99.90;;;;;;5035537;28;20447;-79
2023/08/13 00:20:36;;;;;;;11.77;3.30;;;16.20;99.90;;;;;;5050099;28;20828;-79
2023/08/13 00:23:02;;;;;;;12.60;3.70;;;16.20;99.90;;;;;;5033797;28;20405;-79
2023/08/13 00:25:27;;;;;;;12.07;3.72;;;16.60;99.90;;;;;;5048584;28;20431;-79
2023/08/13 00:27:53;;;;;;;12.50;3.63;;;16.30;99.90;;;;;;5051388;28;20430;-79
2023/08/13 00:30:19;;;;;;;12.43;3.70;;;15.90;99.90;;;;;;5053982;28;20435;-79
2023/08/13 00:32:44;;;;;;;10.48;3.47;;;15.90;99.90;;;;;;5031770;28;20456;-79
2023/08/13 00:35:10;;;;;;;14.38;3.90;;;16.10;99.90;;;;;;5036522;28;21080;-78
2023/08/13 00:37:36;;;;;;;12.40;3.90;;;16.10;99.90;;;;;;5037265;28;20407;-79
2023/08/13 00:40:04;;;;;;;10.13;3.80;;;16.00;99.90;;;;;;5036824;28;20416;-79
2023/08/13 00:42:29;;;;;;;14.23;3.80;;;15.80;99.90;;;;;;5052841;28;20425;-78
2023/08/13 00:44:55;;;;;;;11.97;3.80;;;15.70;99.90;;;;;;5038572;28;20427;-79
2023/08/13 00:47:21;;;;;;;13.90;3.88;;;15.80;99.90;;;;;;5050510;28;20445;-79
2023/08/13 00:49:49;;;;;;;14.50;4.20;;;15.90;99.90;;;;;;5070699;28;20914;-79
2023/08/13 00:52:15;;;;;;;15.43;4.05;;;15.90;99.90;;;;;;5056215;28;20472;-79
2023/08/13 00:54:41;;;;;;;11.98;4.10;;;15.90;99.90;;;;;;5041756;28;20411;-80
2023/08/13 00:57:09;;;;;;;17.90;4.43;;;15.70;99.90;;;;;;5027144;28;20420;-79
2023/08/13 00:59:35;;;;;;;17.08;4.50;;;16.00;99.90;;;;;;5059741;28;20779;-80
2023/08/13 01:02:02;;;;;;;13.07;4.35;;;15.90;99.90;;;;;;5060345;28;20771;-80
2023/08/13 01:04:28;;;;;;;11.20;4.00;;;15.90;99.90;;;;;;5026400;28;20427;-79
2023/08/13 01:07:12;;;;;;;13.23;4.05;;;16.00;99.90;;;;;;5034942;28;20941;-80
2023/08/13 01:09:53;;;;;;;11.55;4.25;;;15.80;99.90;;;;;;5040734;28;20492;-79
2023/08/13 01:12:30;;;;;;;18.42;4.88;;;15.90;99.90;;;;;;5060309;28;20415;-78
2023/08/13 01:15:14;;;;;;;14.45;4.15;;;16.10;99.90;;;;;;5078045;28;20407;-78
2023/08/13 01:17:40;;;;;;;15.23;4.53;;;16.20;99.90;;;;;;5052451;28;20425;-79
2023/08/13 01:20:07;;;;;;;15.40;4.28;;;15.80;99.90;;;;;;5047478;28;20781;-79
2023/08/13 01:22:37;;;;;;;14.40;4.30;;;16.10;99.90;;;;;;5047260;28;20932;-78
2023/08/13 01:25:05;;;;;;;14.73;4.20;;;16.00;99.90;;;;;;5039697;28;20944;-79
2023/08/13 01:27:50;;;;;;;13.97;3.93;;;15.90;99.90;;;;;;5050537;28;20421;-79
2023/08/13 01:30:23;;;;;;;13.80;4.22;;;15.90;99.90;;;;;;5022811;28;20421;-78
2023/08/13 01:33:00;;;;;;;13.83;4.67;;;16.00;99.90;;;;;;5057238;28;20430;-78
2023/08/13 01:35:27;;;;;;;13.95;4.40;;;16.00;99.90;;;;;;5037057;28;20432;-79
2023/08/13 01:37:54;;;;;;;14.45;4.15;;;16.10;99.90;;;;;;5037501;28;20772;-80
2023/08/13 01:40:21;;;;;;;12.30;4.03;;;16.10;99.90;;;;;;5054333;28;20423;-79
2023/08/13 01:42:46;;;;;;;15.50;4.45;;;16.00;99.90;;;;;;5023428;28;20439;-79
2023/08/13 01:45:12;;;;;;;14.43;4.35;;;16.10;99.90;;;;;;5027122;28;20421;-80
2023/08/13 01:47:38;;;;;;;13.38;4.28;;;16.20;99.90;;;;;;5047592;28;20424;-80
2023/08/13 01:50:04;;;;;;;17.60;4.40;;;16.20;99.90;;;;;;5042720;28;20415;-80
2023/08/13 01:52:31;;;;;;;16.13;4.10;;;16.40;99.90;;;;;;5053529;28;20911;-79
2023/08/13 01:54:56;;;;;;;13.45;3.95;;;16.20;99.90;;;;;;5052130;28;20432;-80
2023/08/13 01:57:22;;;;;;;14.77;4.07;;;16.30;99.90;;;;;;5032048;28;20429;-79
2023/08/13 01:59:48;;;;;;;14.73;4.10;;;16.40;99.90;;;;;;5070967;28;20887;-79
2023/08/13 02:02:14;;;;;;;12.02;4.38;;;16.20;99.90;;;;;;5039153;28;20451;-79
2023/08/13 02:04:39;;;;;;;16.53;4.40;;;16.50;99.90;;;;;;5024834;28;20451;-79
2023/08/13 02:07:05;;;;;;;12.20;3.93;;;16.50;99.90;;;;;;5034894;28;20460;-80
2023/08/13 02:09:30;;;;;;;13.35;4.10;;;16.30;99.90;;;;;;5038175;28;20483;-81
2023/08/13 02:11:56;;;;;;;18.95;5.30;;;16.30;99.90;;;;;;5054649;28;20411;-80
2023/08/13 02:14:22;;;;;;;16.88;4.75;;;16.40;99.90;;;;;;5023120;28;20407;-81
2023/08/13 02:16:48;;;;;;;13.87;4.53;;;16.30;99.90;;;;;;5055641;28;20417;-79
2023/08/13 02:19:13;;;;;;;14.97;4.73;;;16.30;99.90;;;;;;5052302;28;20412;-80
2023/08/13 02:21:39;;;;;;;13.00;4.35;;;16.30;99.90;;;;;;5042994;28;20420;-80
2023/08/13 02:24:05;;;;;;;16.70;4.82;;;16.00;99.90;;;;;;5036266;28;20402;-80
2023/08/13 02:26:31;;;;;;;18.73;4.43;;;16.10;99.90;;;;;;5030325;28;20438;-80
2023/08/13 02:28:56;;;;;;;17.02;4.85;;;15.90;99.90;;;;;;5056168;28;20398;-80
2023/08/13 02:31:22;;;;;;;16.77;5.00;;;16.10;99.90;;;;;;5045954;28;20500;-78
2023/08/13 02:33:48;;;;;;;16.67;4.80;;;16.00;99.90;;;;;;5031521;28;20860;-79
2023/08/13 02:36:14;;;;;;;15.47;4.90;;;15.90;99.90;;;;;;5018846;28;20762;-80
2023/08/13 02:38:39;;;;;;;15.82;5.13;;;15.80;99.90;;;;;;5020232;28;20401;-79
2023/08/13 02:41:05;;;;;;;19.67;4.90;;;15.90;99.90;;;;;;5054975;28;20455;-80
2023/08/13 02:43:48;;;;;;;15.87;5.23;;;15.60;99.90;;;;;;5052601;28;20425;-79
2023/08/13 02:46:14;;;;;;;15.35;4.75;;;15.70;99.90;;;;;;5039274;28;21105;-80
2023/08/13 02:48:39;;;;;;;16.37;4.40;;;15.90;99.90;;;;;;5026135;28;20498;-79
2023/08/13 02:51:05;;;;;;;17.10;4.97;;;15.70;99.90;;;;;;5029619;28;20429;-79
2023/08/13 02:53:31;;;;;;;15.82;4.75;;;15.70;99.90;;;;;;5020797;28;20416;-78
2023/08/13 02:55:56;;;;;;;21.23;5.22;;;16.10;99.90;;;;;;5055428;28;20406;-79
2023/08/13 02:58:22;;;;;;;15.83;4.87;;;15.80;99.90;;;;;;5055384;28;20439;-81
2023/08/13 03:00:48;;;;;;;17.35;5.05;;;15.80;99.90;;;;;;5048525;28;20511;-80
2023/08/13 03:03:13;;;;;;;15.95;5.28;;;15.50;99.90;;;;;;5025499;28;20485;-80
2023/08/13 03:05:39;;;;;;;18.77;5.10;;;15.70;99.90;;;;;;5054460;28;20430;-79
2023/08/13 03:08:05;;;;;;;16.73;4.73;;;15.70;99.90;;;;;;5047027;28;20781;-80
2023/08/13 03:10:31;;;;;;;17.50;5.13;;;15.60;99.90;;;;;;5045521;28;20512;-80
2023/08/13 03:12:56;;;;;;;23.30;5.60;;;15.70;99.90;;;;;;5055145;28;20408;-78
2023/08/13 03:15:22;;;;;;;16.88;5.43;;;15.20;99.90;;;;;;5045369;28;20464;-79
2023/08/13 03:17:50;;;;;;;18.52;5.93;;;15.40;99.90;;;;;;5039799;28;20476;-79
2023/08/13 03:20:16;;;;;;;16.77;4.97;;;15.50;99.90;;;;;;5055335;28;20798;-79
2023/08/13 03:22:42;;;;;;;23.97;6.27;;;15.30;99.90;;;;;;5034891;28;20521;-80
2023/08/13 03:25:08;;;;;;;20.08;5.68;;;15.10;99.90;;;;;;5025408;28;20454;-79
2023/08/13 03:27:34;;;;;;;17.45;5.57;;;15.40;99.90;;;;;;5054069;28;20428;-79
2023/08/13 03:29:59;;;;;;;18.23;6.00;;;15.20;99.90;;;;;;5050929;28;20417;-79
2023/08/13 03:32:25;;;;;;;18.23;5.70;;;15.30;99.90;;;;;;5049935;28;20915;-79
2023/08/13 03:34:51;;;;;;;19.53;5.40;;;15.40;99.90;;;;;;5053838;28;20423;-79
2023/08/13 03:37:16;;;;;;;17.00;5.53;;;15.30;99.90;;;;;;5031204;28;20425;-80
2023/08/13 03:39:42;;;;;;;18.75;6.35;;;15.40;99.90;;;;;;5018353;28;20753;-80
2023/08/13 03:42:08;;;;;;;20.58;5.82;;;15.60;99.90;;;;;;5033651;28;20928;-80
2023/08/13 03:44:33;;;;;;;15.27;5.20;;;15.50;99.90;;;;;;5068235;28;20435;-80
2023/08/13 03:46:59;;;;;;;17.27;5.63;;;15.40;99.90;;;;;;5037834;28;20416;-80
2023/08/13 03:49:25;;;;;;;13.50;5.05;;;15.80;99.90;;;;;;5049672;28;20436;-81
2023/08/13 03:51:51;;;;;;;17.42;5.63;;;15.60;99.90;;;;;;5018409;28;20402;-79
2023/08/13 03:54:17;;;;;;;15.35;5.35;;;15.60;99.90;;;;;;5048056;28;20418;-80
2023/08/13 03:56:43;;;;;;;18.23;5.53;;;15.70;99.90;;;;;;5054041;28;20407;-80
2023/08/13 03:59:09;;;;;;;15.83;5.60;;;15.50;99.90;;;;;;5026210;28;20422;-80
2023/08/13 04:01:34;;;;;;;17.87;5.57;;;15.50;99.90;;;;;;5046397;28;20459;-80
2023/08/13 04:04:00;;;;;;;19.67;5.63;;;15.60;99.90;;;;;;5034795;28;20393;-80
2023/08/13 04:06:26;;;;;;;15.93;5.07;;;15.60;99.90;;;;;;5019492;28;20421;-80
2023/08/13 04:08:51;;;;;;;20.80;5.45;;;15.70;99.90;;;;;;5040999;28;20421;-80
2023/08/13 04:11:17;;;;;;;16.73;5.20;;;15.70;99.90;;;;;;5027585;28;20418;-80
2023/08/13 04:13:43;;;;;;;20.07;5.50;;;15.60;99.90;;;;;;5032472;28;20422;-80
2023/08/13 04:16:08;;;;;;;17.58;5.15;;;15.90;99.90;;;;;;5024890;28;20427;-79
2023/08/13 04:18:34;;;;;;;18.23;5.28;;;15.90;99.90;;;;;;5019741;28;20411;-80
2023/08/13 04:21:00;;;;;;;15.05;5.63;;;15.80;99.90;;;;;;5033194;28;20478;-79
2023/08/13 04:23:26;;;;;;;18.73;5.17;;;15.90;99.90;;;;;;5036639;28;20424;-80
2023/08/13 04:25:51;;;;;;;17.57;5.40;;;15.80;99.90;;;;;;5047864;28;20427;-79
2023/08/13 04:28:17;;;;;;;16.65;5.35;;;15.70;99.90;;;;;;5017662;28;20551;-78
2023/08/13 04:30:43;;;;;;;16.00;6.05;;;15.70;99.90;;;;;;5038083;28;20961;-80
2023/08/13 04:33:08;;;;;;;15.27;4.87;;;15.80;99.90;;;;;;5036552;28;20447;-80
2023/08/13 04:35:34;;;;;;;19.83;5.70;;;15.90;99.90;;;;;;5020146;28;20903;-80
2023/08/13 04:38:00;;;;;;;18.15;5.18;;;16.00;99.90;;;;;;5021431;28;20485;-80
2023/08/13 04:40:25;;;;;;;18.80;6.00;;;15.90;99.90;;;;;;5036809;28;20504;-80
2023/08/13 04:42:52;;;;;;;17.30;5.68;;;15.90;99.90;;;;;;5045843;28;20425;-80
2023/08/13 04:45:17;;;;;;;14.90;5.30;;;15.90;99.90;;;;;;5041926;28;20481;-80
2023/08/13 04:47:43;;;;;;;17.60;5.43;;;16.10;99.90;;;;;;5033533;28;20421;-80
2023/08/13 04:50:09;;;;;;;15.10;5.20;;;15.80;99.90;;;;;;5048916;28;20404;-80
2023/08/13 04:52:35;;;;;;;13.32;5.30;;;16.10;99.90;;;;;;5050316;28;20420;-80
2023/08/13 04:55:01;;;;;;;19.17;5.50;;;16.00;99.90;;;;;;5063246;28;20553;-81
2023/08/13 04:57:27;;;;;;;15.52;5.40;;;15.90;99.90;;;;;;5036876;28;20447;-80
2023/08/13 04:59:53;;;;;;;21.90;5.35;;;16.00;99.90;;;;;;5045257;28;20891;-80
2023/08/13 05:02:18;;;;;;;16.13;4.97;;;16.10;99.90;;;;;;5036281;28;20431;-80
2023/08/13 05:04:44;;;;;;;17.40;5.10;;;16.20;99.90;;;;;;5036533;28;20427;-79
2023/08/13 05:07:09;;;;;;;17.87;5.37;;;16.10;99.90;;;;;;5036904;28;20901;-80
2023/08/13 05:09:35;;;;;;;13.88;4.57;;;16.40;99.90;;;;;;5017200;28;20924;-79
2023/08/13 05:12:01;;;;;;;16.27;5.00;;;16.30;99.90;;;;;;5039796;28;20405;-79
2023/08/13 05:14:27;;;;;;;15.02;5.20;;;16.30;99.90;;;;;;5050433;28;20478;-80
2023/08/13 05:16:56;;;;;;;14.25;5.72;;;16.10;99.90;;;;;;5026819;28;20875;-80
2023/08/13 05:19:22;;;;;;;12.68;4.80;;;16.50;99.90;;;;;;5033959;28;20547;-80
2023/08/13 05:21:47;;;;;;;16.83;5.40;;;16.50;99.90;;;;;;5016883;28;20936;-81
2023/08/13 05:24:13;;;;;;;17.67;5.07;;;16.30;99.90;;;;;;5001172;28;20477;-80
2023/08/13 05:26:39;;;;;;;15.70;5.20;;;16.40;99.90;;;;;;5035607;28;20959;-80
2023/08/13 05:29:04;;;;;;;17.25;5.55;;;16.40;99.90;;;;;;5039975;28;20452;-80
2023/08/13 05:31:30;;;;;;;13.05;4.88;;;16.40;99.90;;;;;;5053673;28;20417;-81
2023/08/13 05:33:59;;;;;;;13.73;4.90;;;16.40;99.90;;;;;;5045237;28;20415;-80
2023/08/13 05:36:25;;;;;;;13.70;4.95;;;16.50;99.90;;;;;;5040616;28;20469;-81
2023/08/13 05:38:51;;;;;;;13.15;4.95;;;16.40;99.90;;;;;;5040130;28;20524;-80
2023/08/13 05:41:17;;;;;;;13.15;4.88;;;16.70;99.90;;;;;;5052342;28;20760;-79
2023/08/13 05:43:43;;;;;;;16.92;5.40;;;16.90;99.90;;;;;;5033641;28;20756;-79
2023/08/13 05:46:09;;;;;;;15.60;5.20;;;16.60;99.90;;;;;;5028435;28;20913;-81
2023/08/13 05:48:34;;;;;;;17.65;5.05;;;16.50;99.90;;;;;;5035058;28;20484;-80
2023/08/13 05:51:00;;;;;;;16.40;5.40;;;16.40;99.90;;;;;;5033598;28;20974;-81
2023/08/13 05:53:26;;;;;;;15.97;4.80;;;16.60;99.90;;;;;;5045595;28;20417;-80
2023/08/13 05:55:52;;;;;;;16.08;4.78;;;16.80;99.90;;;;;;5030167;28;20427;-80
2023/08/13 05:58:18;;;;;;;14.90;5.10;;;16.40;99.90;;;;;;5052383;28;20465;-80
2023/08/13 06:00:44;;;;;;;12.38;4.75;;;16.60;99.90;;;;;;5032796;28;20447;-80
2023/08/13 06:03:10;;;;;;;16.73;4.82;;;16.40;99.90;;;;;;5050489;28;20415;-80
2023/08/13 06:05:38;;;;;;;17.10;5.43;;;16.30;99.90;;;;;;5039581;28;20431;-79
2023/08/13 06:08:04;;;;;;;15.55;5.13;;;16.60;99.90;;;;;;5036316;28;20903;-81
2023/08/13 06:10:30;;;;;;;16.98;5.30;;;16.60;99.90;;;;;;5045765;28;20501;-80
2023/08/13 06:12:56;;;;;;;15.63;5.40;;;16.40;99.90;;;;;;5037185;28;20458;-81
2023/08/13 06:15:21;;;;;;;15.73;5.13;;;16.80;99.90;;;;;;5036804;28;20463;-81
2023/08/13 06:17:48;;;;;;;14.63;5.30;;;16.70;99.90;;;;;;5056135;28;20508;-79
2023/08/13 06:20:15;;;;;;;17.15;5.63;;;16.80;99.90;;;;;;5036014;28;20450;-80
2023/08/13 06:22:41;;;;;;;15.95;5.32;;;16.60;99.90;;;;;;5049891;28;20497;-80
2023/08/13 06:25:07;;;;;;;17.17;5.25;;;16.60;99.90;;;;;;5037336;28;20923;-79
2023/08/13 06:27:33;;;;;;;15.90;5.38;;;16.90;99.90;;;;;;5037286;28;20452;-79
2023/08/13 06:29:59;;;;;;;15.07;5.40;;;17.00;99.90;;;;;;5021907;28;20510;-80
2023/08/13 06:32:24;;;;;;;14.23;5.38;;;17.40;99.90;;;;;;5047809;28;20424;-80
2023/08/13 06:34:50;;;;;;;13.23;4.45;;;17.10;99.90;;;;;;5022059;28;20424;-81
2023/08/13 06:37:16;;;;;;;12.95;4.90;;;17.30;99.90;;;;;;5036553;28;20438;-80
2023/08/13 06:39:41;;;;;;;17.83;5.27;;;17.60;99.90;;;;;;5046779;28;20427;-80
2023/08/13 06:42:07;;;;;;;12.43;4.83;;;17.60;99.90;;;;;;5036037;28;20425;-80
2023/08/13 06:44:33;;;;;;;13.20;4.63;;;17.60;99.90;;;;;;5035206;28;20479;-79
2023/08/13 06:46:59;;;;;;;14.98;4.78;;;17.40;99.90;;;;;;5033922;28;20447;-80
2023/08/13 06:49:24;;;;;;;15.57;4.80;;;17.60;99.90;;;;;;5034743;28;20419;-73
2023/08/13 06:51:50;;;;;;;13.57;5.13;;;17.50;99.90;;;;;;5070304;28;20407;-73
2023/08/13 06:54:16;;;;;;;15.90;5.17;;;17.50;99.90;;;;;;5052940;28;20910;-74
2023/08/13 06:56:42;;;;;;;14.23;5.37;;;17.60;99.90;;;;;;5052586;28;20432;-74
2023/08/13 06:59:08;;;;;;;12.80;4.95;;;17.90;99.90;;;;;;5054043;28;20405;-74
2023/08/13 07:01:34;;;;;;;15.65;5.38;;;19.30;99.90;;;;;;5053119;28;20488;-73
2023/08/13 07:04:00;;;;;;;10.15;4.60;;;17.70;99.90;;;;;;5033303;28;20510;-73
2023/08/13 07:06:26;;;;;;;16.47;4.93;;;18.20;99.90;;;;;;5069648;28;20430;-74
2023/08/13 07:08:52;;;;;;;13.95;5.07;;;18.20;99.90;;;;;;5021456;28;20483;-73
2023/08/13 07:11:18;;;;;;;14.95;4.95;;;18.30;99.90;;;;;;5066949;28;20413;-73
2023/08/13 07:13:43;;;;;;;14.60;4.55;;;18.30;99.90;;;;;;5033464;28;20423;-74
2023/08/13 07:16:12;;;;;;;14.33;5.50;;;18.60;99.90;;;;;;5061366;28;20420;-74
2023/08/13 07:18:38;;;;;;;17.40;5.18;;;18.70;99.90;;;;;;5055631;28;20467;-74
2023/08/13 07:21:06;;;;;;;16.02;4.68;;;18.00;99.90;;;;;;5058110;28;20498;-75
2023/08/13 07:23:32;;;;;;;16.63;4.45;;;18.80;99.90;;;;;;5053804;28;20423;-74
2023/08/13 07:25:58;;;;;;;13.80;4.72;;;19.30;99.90;;;;;;5065876;28;20416;-75
2023/08/13 07:28:23;;;;;;;14.80;4.95;;;19.00;99.90;;;;;;5050672;28;20941;-80
2023/08/13 07:30:49;;;;;;;11.82;3.92;;;19.40;99.90;;;;;;5035514;28;20439;-81
2023/08/13 07:33:15;;;;;;;12.23;4.28;;;19.30;99.90;;;;;;5053507;28;20415;-80
2023/08/13 07:35:41;;;;;;;14.50;4.20;;;19.50;99.90;;;;;;5019832;28;20889;-81
2023/08/13 07:38:07;;;;;;;13.97;4.57;;;19.40;99.90;;;;;;5036428;28;20417;-80
2023/08/13 07:40:34;;;;;;;13.33;3.77;;;19.30;99.90;;;;;;5008795;28;20516;-80
2023/08/13 07:43:00;;;;;;;11.55;4.30;;;19.40;99.90;;;;;;5034049;28;20427;-80
2023/08/13 07:45:29;;;;;;;11.88;4.25;;;19.30;99.90;;;;;;5064276;28;20427;-81
2023/08/13 07:47:55;;;;;;;11.53;3.70;;;19.60;99.90;;;;;;5041130;28;20416;-81
2023/08/13 07:50:22;;;;;;;10.88;3.58;;;19.80;99.90;;;;;;5055053;28;20471;-81
2023/08/13 07:52:50;;;;;;;12.25;3.65;;;19.80;99.90;;;;;;5052014;28;20489;-81
2023/08/13 07:55:15;;;;;;;10.57;4.03;;;20.00;99.90;;;;;;5037713;28;20422;-82
2023/08/13 07:57:41;;;;;;;13.63;4.50;;;20.50;99.90;;;;;;5055833;28;20475;-83
2023/08/13 08:00:08;;;;;;;9.15;3.13;;;20.70;99.90;;;;;;5073203;28;20416;-82
2023/08/13 08:02:34;;;;;;;11.20;3.93;;;20.90;99.90;;;;;;5050252;28;20427;-82
2023/08/13 08:05:00;;;;;;;9.82;3.33;;;21.10;99.90;;;;;;5045065;28;20490;-82
2023/08/13 08:07:27;;;;;;;13.35;4.10;;;21.10;99.90;;;;;;5040257;28;20511;-82
2023/08/13 08:09:53;;;;;;;11.65;3.65;;;21.00;99.90;;;;;;5022088;28;20431;-82
2023/08/13 08:12:18;;;;;;;14.57;3.63;;;20.80;99.90;;;;;;5058508;28;20416;-83
2023/08/13 08:14:44;;;;;;;9.87;3.27;;;21.10;99.90;;;;;;5042302;28;20453;-83
2023/08/13 08:17:10;;;;;;;8.07;2.90;;;20.80;99.90;;;;;;5062676;28;20474;-84
2023/08/13 08:19:35;;;;;;;10.00;3.30;;;20.70;99.90;;;;;;5039673;28;20435;-85
2023/08/13 08:22:01;;;;;;;8.93;3.17;;;20.80;99.90;;;;;;5016009;28;20836;-83
2023/08/13 08:24:27;;;;;;;8.10;3.33;;;20.90;99.90;;;;;;5030922;28;20440;-83
2023/08/13 08:26:53;;;;;;;10.23;3.50;;;21.20;99.90;;;;;;5020294;28;20465;-82
2023/08/13 08:29:19;;;;;;;9.10;3.20;;;21.60;99.90;;;;;;5045140;28;20426;-81
2023/08/13 08:31:44;;;;;;;10.90;3.30;;;21.40;99.90;;;;;;5029677;28;20501;-83
2023/08/13 08:34:10;;;;;;;9.55;3.17;;;21.30;99.90;;;;;;5062695;28;20435;-82
2023/08/13 08:36:36;;;;;;;8.97;3.07;;;21.10;99.90;;;;;;5048817;28;20425;-81
2023/08/13 08:39:03;;;;;;;9.75;3.22;;;20.90;99.90;;;;;;5050755;28;20429;-85
2023/08/13 08:41:31;;;;;;;10.05;2.95;;;20.60;99.90;;;;;;5049124;28;20430;-82
2023/08/13 08:43:59;;;;;;;9.03;2.97;;;20.60;99.90;;;;;;5064261;28;20432;-85
2023/08/13 08:46:28;;;;;;;9.57;3.30;;;20.50;99.90;;;;;;5053982;28;20433;-84
2023/08/13 08:48:55;;;;;;;8.90;2.60;;;21.10;99.90;;;;;;5056414;28;20412;-82
2023/08/13 08:51:22;;;;;;;12.23;3.35;;;21.40;99.90;;;;;;5045513;28;20420;-83
2023/08/13 08:53:49;;;;;;;9.15;2.78;;;21.80;99.90;;;;;;5042278;28;20507;-83
2023/08/13 08:56:15;;;;;;;8.47;2.50;;;21.50;99.90;;;;;;5043730;28;20421;-82
2023/08/13 08:58:41;;;;;;;10.57;2.87;;;21.50;99.90;;;;;;5049506;28;20483;-83
2023/08/13 09:01:07;;;;;;;11.32;3.10;;;21.40;99.90;;;;;;5043019;28;20421;-80
2023/08/13 09:03:32;;;;;;;8.60;2.80;;;21.30;99.90;;;;;;5038905;28;20419;-79
2023/08/13 09:05:58;;;;;;;9.30;2.83;;;21.10;99.90;;;;;;5038981;28;22219;-80
2023/08/13 09:08:25;;;;;;;9.43;2.97;;;21.40;99.90;;;;;;5042331;28;20430;-80
2023/08/13 09:10:51;;;;;;;9.50;3.08;;;21.20;99.90;;;;;;5050947;28;20917;-81
2023/08/13 09:13:16;;;;;;;9.85;3.05;;;21.20;99.90;;;;;;5050291;28;20426;-81
2023/08/13 09:15:49;;;;;;;12.30;2.90;;;20.90;99.90;;;;;;5051529;28;20413;-83
2023/08/13 09:18:15;;;;;;;8.05;2.80;;;21.20;99.90;;;;;;5052480;28;20919;-81
2023/08/13 09:20:46;;;;;;;7.70;2.60;;;21.40;99.90;;;;;;5036131;28;20421;-81
2023/08/13 09:23:21;;;;;;;9.75;2.58;;;21.40;99.90;;;;;;5038992;28;20424;-81
2023/08/13 09:25:54;;;;;;;6.90;2.50;;;21.50;99.90;;;;;;5029351;28;20429;-82
2023/08/13 09:28:20;;;;;;;7.50;2.80;;;21.60;99.90;;;;;;5050986;28;20419;-82
2023/08/13 09:30:46;;;;;;;8.93;2.80;;;22.00;99.90;;;;;;5056066;28;20427;-81
2023/08/13 09:33:16;;;;;;;9.68;2.70;;;21.20;99.90;;;;;;5055511;28;20405;-84
2023/08/13 09:35:43;;;;;;;9.02;2.92;;;21.40;99.90;;;;;;5062669;28;20430;-74
2023/08/13 09:38:09;;;;;;;6.30;2.77;;;21.70;99.90;;;;;;5061814;28;20419;-73
2023/08/13 09:40:35;;;;;;;9.47;2.90;;;22.10;99.90;;;;;;5032246;28;20421;-73
2023/08/13 09:43:08;;;;;;;8.60;2.42;;;22.10;99.90;;;;;;5036962;28;20423;-72
2023/08/13 09:45:35;;;;;;;10.90;2.47;;;22.10;99.90;;;;;;5037618;28;20559;-73
2023/08/13 09:48:06;;;;;;;8.18;2.92;;;22.80;99.90;;;;;;5052379;28;20427;-73
2023/08/13 09:50:41;;;;;;;8.30;2.70;;;22.30;99.90;;;;;;5067153;28;20421;-73
2023/08/13 09:53:11;;;;;;;6.57;2.23;;;22.00;99.90;;;;;;5023732;28;20432;-75
2023/08/13 09:55:44;;;;;;;6.55;2.60;;;22.40;99.90;;;;;;5043431;28;20427;-75
2023/08/13 09:58:13;;;;;;;7.67;2.50;;;22.20;99.90;;;;;;5044198;28;20436;-75
2023/08/13 10:00:39;;;;;;;8.53;2.40;;;22.30;99.90;;;;;;5069076;28;20424;-75
2023/08/13 10:03:05;;;;;;;7.37;2.43;;;22.30;99.90;;;;;;5033013;28;20425;-75
2023/08/13 10:05:31;;;;;;;9.77;2.80;;;22.40;99.90;;;;;;5046644;28;20934;-77
2023/08/13 10:07:58;;;;;;;6.85;2.30;;;22.30;99.90;;;;;;5065605;28;20447;-75
2023/08/13 10:10:25;;;;;;;5.90;2.38;;;22.20;99.90;;;;;;5041563;28;20457;-75
2023/08/13 10:12:51;;;;;;;6.60;2.22;;;22.20;99.90;;;;;;5067714;28;20431;-75
2023/08/13 10:15:22;;;;;;;6.65;2.15;;;22.20;99.90;;;;;;5050139;28;20511;-75
2023/08/13 10:17:49;;;;;;;8.48;2.40;;;21.20;99.90;;;;;;5046825;28;20438;-76
2023/08/13 10:20:17;;;;;;;8.50;2.70;;;23.00;99.90;;;;;;5030794;28;20423;-75
2023/08/13 10:22:45;;;;;;;9.57;2.40;;;22.10;99.90;;;;;;5048720;28;20829;-75
2023/08/13 10:25:26;;;;;;;8.27;2.70;;;22.40;99.90;;;;;;5045313;28;20422;-75
2023/08/13 10:27:53;;;;;;;7.07;2.63;;;22.40;99.90;;;;;;5027077;28;20442;-75
2023/08/13 10:30:19;;;;;;;7.28;2.63;;;22.40;99.90;;;;;;5044668;28;20551;-75
2023/08/13 10:32:59;;;;;;;7.10;2.63;;;22.50;99.90;;;;;;5041446;28;20493;-75
2023/08/13 10:35:28;;;;;;;7.15;2.50;;;22.60;99.90;;;;;;5057473;28;20404;-75
2023/08/13 10:37:59;;;;;;;8.57;2.70;;;22.40;99.90;;;;;;5047300;28;20413;-75
2023/08/13 10:40:25;;;;;;;7.18;2.55;;;22.10;99.90;;;;;;5034749;28;20459;-76
2023/08/13 10:42:58;;;;;;;6.53;2.58;;;22.00;99.90;;;;;;5078522;28;20418;-76
2023/08/13 10:45:26;;;;;;;7.15;2.50;;;22.40;99.90;;;;;;5025024;28;20416;-75
2023/08/13 10:48:03;;;;;;;7.57;2.60;;;22.00;99.90;;;;;;5042534;28;20824;-75
2023/08/13 10:50:41;;;;;;;6.82;2.55;;;21.80;99.90;;;;;;5047972;28;20739;-76
2023/08/13 10:53:22;;;;;;;10.18;2.60;;;22.40;99.90;;;;;;5054290;28;20449;-75
2023/08/13 10:55:50;;;;;;;5.03;2.47;;;22.70;99.90;;;;;;5068062;28;20467;-76
2023/08/13 10:58:33;;;;;;;6.90;2.40;;;22.50;99.90;;;;;;5069808;28;20437;-75
2023/08/13 11:01:20;;;;;;;8.82;2.50;;;22.80;99.90;;;;;;5051793;28;20430;-75
2023/08/13 11:03:52;;;;;;;7.00;2.40;;;22.90;99.90;;;;;;5069722;28;20403;-75
2023/08/13 11:06:22;;;;;;;6.85;2.40;;;23.30;99.90;;;;;;5050794;28;20528;-75
2023/08/13 11:08:48;;;;;;;7.70;2.55;;;23.80;99.90;;;;;;5050294;28;20472;-75
2023/08/13 11:11:15;;;;;;;6.00;1.95;;;23.50;99.90;;;;;;5050404;28;20421;-75
2023/08/13 11:13:41;;;;;;;6.07;2.20;;;23.60;99.90;;;;;;5022625;28;20526;-75
2023/08/13 11:16:07;;;;;;;4.63;2.10;;;23.70;99.90;;;;;;5063507;28;21065;-76
2023/08/13 11:18:33;;;;;;;4.32;1.90;;;23.70;99.90;;;;;;5057056;28;21204;-76
2023/08/13 11:20:59;;;;;;;5.47;2.15;;;23.80;99.90;;;;;;5052649;28;20407;-76
2023/08/13 11:23:25;;;;;;;6.20;2.22;;;23.50;99.90;;;;;;5060957;28;20409;-76
2023/08/13 11:25:52;;;;;;;6.65;2.25;;;23.20;99.90;;;;;;5024270;28;20421;-75
2023/08/13 11:28:24;;;;;;;8.23;2.28;;;23.60;99.90;;;;;;5031326;28;20472;-76
2023/08/13 11:30:52;;;;;;;6.80;2.00;;;23.20;99.90;;;;;;5045163;28;20500;-76
2023/08/13 11:33:19;;;;;;;5.05;2.03;;;23.10;99.90;;;;;;5070455;28;20416;-76
2023/08/13 11:35:48;;;;;;;5.80;2.10;;;23.40;99.90;;;;;;5070133;28;20922;-75
2023/08/13 11:38:14;;;;;;;5.80;1.80;;;23.80;99.90;;;;;;5070260;28;20483;-76
2023/08/13 11:40:40;;;;;;;6.97;2.38;;;23.70;99.90;;;;;;5049552;28;20425;-77
2023/08/13 11:43:10;;;;;;;6.27;2.03;;;23.70;99.90;;;;;;5039747;28;20429;-77
2023/08/13 11:45:36;;;;;;;6.03;2.03;;;23.80;99.90;;;;;;5048934;28;20822;-77
2023/08/13 11:48:13;;;;;;;3.67;1.77;;;23.50;99.90;;;;;;5023802;28;20467;-77
2023/08/13 11:50:40;;;;;;;5.43;1.85;;;23.90;99.90;;;;;;5059992;28;20498;-77
2023/08/13 11:53:15;;;;;;;4.78;1.95;;;23.90;99.90;;;;;;5022577;28;20421;-77
2023/08/13 11:55:43;;;;;;;6.43;1.87;;;23.80;99.90;;;;;;5046233;28;20427;-76
2023/08/13 11:58:08;;;;;;;5.07;1.70;;;23.30;99.90;;;;;;5033904;28;20440;-76
2023/08/13 12:00:35;;;;;;;5.13;1.60;;;23.30;99.90;;;;;;5057829;28;20424;-76
2023/08/13 12:03:01;;;;;;;4.07;1.60;;;23.30;99.90;;;;;;5065538;28;20419;-75
2023/08/13 12:05:29;;;;;;;3.28;1.50;;;23.30;99.90;;;;;;5064649;28;20445;-75
2023/08/13 12:08:04;;;;;;;5.13;1.90;;;23.10;99.90;;;;;;5014507;28;20906;-75
2023/08/13 12:10:31;;;;;;;4.43;1.65;;;23.30;99.90;;;;;;5063892;28;20420;-75
2023/08/13 12:12:57;;;;;;;5.30;1.60;;;23.30;99.90;;;;;;5045336;28;20423;-74
2023/08/13 12:15:24;;;;;;;4.00;1.40;;;23.20;99.90;;;;;;5029803;28;20420;-73
2023/08/13 12:17:55;;;;;;;3.65;1.25;;;23.70;99.90;;;;;;5024290;28;20425;-73
2023/08/13 12:20:21;;;;;;;3.55;1.42;;;23.70;99.90;;;;;;5058966;28;20459;-74
2023/08/13 12:22:47;;;;;;;5.75;1.63;;;23.80;99.90;;;;;;5029738;28;20751;-73
2023/08/13 12:25:12;;;;;;;3.40;1.60;;;23.70;99.90;;;;;;5067569;28;20436;-73
2023/08/13 12:27:38;;;;;;;4.10;1.60;;;23.70;99.90;;;;;;5033392;28;20847;-73
2023/08/13 12:30:05;;;;;;;5.47;1.55;;;24.10;99.90;;;;;;5024904;28;20761;-73
2023/08/13 12:32:32;;;;;;;5.25;1.50;;;23.90;99.90;;;;;;5021863;28;20421;-73
2023/08/13 12:34:58;;;;;;;4.35;1.70;;;23.90;99.90;;;;;;5060671;28;20416;-73
2023/08/13 12:37:25;;;;;;;4.35;1.40;;;23.70;99.90;;;;;;5056866;28;20481;-73
2023/08/13 12:39:51;;;;;;;4.00;1.25;;;23.50;99.90;;;;;;5062582;28;20435;-73